sensor_id;sensor_type;location;lat;lon;timestamp;pressure;altitude;pressure_sealevel;temperature;humidity
53440;BME280;39333;47.044;15.080;2023-01-29T00:02:10;96840.41;;;-0.13;82.71
53440;BME280;39333;47.044;15.080;2023-01-29T00:04:37;96839.28;;;-0.11;82.72
53440;BME280;39333;47.044;15.080;2023-01-29T00:07:03;96845.31;;;-0.10;82.37
53440;BME280;39333;47.044;15.080;2023-01-29T00:09:30;96845.47;;;-0.12;82.15
53440;BME280;39333;47.044;15.080;2023-01-29T00:11:57;96846.59;;;-0.14;82.34
53440;BME280;39333;47.044;15.080;2023-01-29T00:14:24;96841.72;;;-0.17;82.46
53440;BME280;39333;47.044;15.080;2023-01-29T00:16:54;96840.41;;;-0.21;83.04
53440;BME280;39333;47.044;15.080;2023-01-29T00:19:21;96848.84;;;-0.27;83.25
53440;BME280;39333;47.044;15.080;2023-01-29T00:21:48;96848.69;;;-0.26;83.46
53440;BME280;39333;47.044;15.080;2023-01-29T00:24:15;96855.38;;;-0.23;83.24
53440;BME280;39333;47.044;15.080;2023-01-29T00:26:41;96852.47;;;-0.20;83.18
53440;BME280;39333;47.044;15.080;2023-01-29T00:29:09;96852.94;;;-0.25;82.80
53440;BME280;39333;47.044;15.080;2023-01-29T00:31:36;96850.16;;;-0.23;82.88
53440;BME280;39333;47.044;15.080;2023-01-29T00:34:05;96855.88;;;-0.20;83.08
53440;BME280;39333;47.044;15.080;2023-01-29T00:36:32;96853.13;;;-0.18;83.08
53440;BME280;39333;47.044;15.080;2023-01-29T00:38:59;96852.16;;;-0.17;82.84
53440;BME280;39333;47.044;15.080;2023-01-29T00:41:30;96851.50;;;-0.19;82.76
53440;BME280;39333;47.044;15.080;2023-01-29T00:44:16;96853.78;;;-0.16;82.56
53440;BME280;39333;47.044;15.080;2023-01-29T00:47:03;96857.19;;;-0.16;82.55
53440;BME280;39333;47.044;15.080;2023-01-29T00:49:31;96855.56;;;-0.17;82.34
53440;BME280;39333;47.044;15.080;2023-01-29T00:51:58;96863.19;;;-0.15;82.11
53440;BME280;39333;47.044;15.080;2023-01-29T00:54:43;96863.03;;;-0.14;82.60
53440;BME280;39333;47.044;15.080;2023-01-29T00:57:10;96863.03;;;-0.14;82.49
53440;BME280;39333;47.044;15.080;2023-01-29T00:59:37;96862.22;;;-0.14;82.33
53440;BME280;39333;47.044;15.080;2023-01-29T01:02:04;96858.66;;;-0.13;82.36
53440;BME280;39333;47.044;15.080;2023-01-29T01:04:50;96853.44;;;-0.13;82.43
53440;BME280;39333;47.044;15.080;2023-01-29T01:07:17;96850.34;;;-0.17;82.41
53440;BME280;39333;47.044;15.080;2023-01-29T01:09:44;96853.28;;;-0.20;82.47
53440;BME280;39333;47.044;15.080;2023-01-29T01:12:30;96855.06;;;-0.20;82.36
53440;BME280;39333;47.044;15.080;2023-01-29T01:14:59;96857.69;;;-0.20;82.50
53440;BME280;39333;47.044;15.080;2023-01-29T01:17:26;96855.38;;;-0.23;82.44
53440;BME280;39333;47.044;15.080;2023-01-29T01:19:53;96853.44;;;-0.21;82.40
53440;BME280;39333;47.044;15.080;2023-01-29T01:22:20;96850.66;;;-0.20;82.53
53440;BME280;39333;47.044;15.080;2023-01-29T01:24:47;96851.66;;;-0.21;82.42
53440;BME280;39333;47.044;15.080;2023-01-29T01:27:14;96848.22;;;-0.21;82.42
53440;BME280;39333;47.044;15.080;2023-01-29T01:29:42;96848.22;;;-0.21;82.52
53440;BME280;39333;47.044;15.080;2023-01-29T01:32:09;96860.28;;;-0.20;82.57
53440;BME280;39333;47.044;15.080;2023-01-29T01:34:36;96864.69;;;-0.21;82.55
53440;BME280;39333;47.044;15.080;2023-01-29T01:37:03;96860.41;;;-0.30;82.35
53440;BME280;39333;47.044;15.080;2023-01-29T01:39:30;96875.56;;;-0.33;83.04
53440;BME280;39333;47.044;15.080;2023-01-29T01:41:57;96886.28;;;-0.37;83.54
53440;BME280;39333;47.044;15.080;2023-01-29T01:47:43;96882.50;;;-0.42;84.35
53440;BME280;39333;47.044;15.080;2023-01-29T01:52:45;96883.38;;;-0.33;84.07
53440;BME280;39333;47.044;15.080;2023-01-29T01:55:16;96887.44;;;-0.31;84.07
53440;BME280;39333;47.044;15.080;2023-01-29T01:57:46;96881.41;;;-0.31;83.66
53440;BME280;39333;47.044;15.080;2023-01-29T02:00:17;96878.31;;;-0.27;83.40
53440;BME280;39333;47.044;15.080;2023-01-29T02:02:45;96883.69;;;-0.28;83.00
53440;BME280;39333;47.044;15.080;2023-01-29T02:05:32;96881.25;;;-0.30;82.59
53440;BME280;39333;47.044;15.080;2023-01-29T02:08:33;96887.28;;;-0.29;82.92
53440;BME280;39333;47.044;15.080;2023-01-29T02:11:20;96886.44;;;-0.30;82.89
53440;BME280;39333;47.044;15.080;2023-01-29T02:13:47;96880.56;;;-0.32;82.99
53440;BME280;39333;47.044;15.080;2023-01-29T02:16:24;96885.16;;;-0.34;82.94
53440;BME280;39333;47.044;15.080;2023-01-29T02:18:51;96889.22;;;-0.31;82.82
53440;BME280;39333;47.044;15.080;2023-01-29T02:27:12;96891.34;;;-0.35;83.51
53440;BME280;39333;47.044;15.080;2023-01-29T02:35:18;96896.03;;;-0.39;83.86
53440;BME280;39333;47.044;15.080;2023-01-29T02:43:40;96900.97;;;-0.27;83.75
53440;BME280;39333;47.044;15.080;2023-01-29T02:47:16;96905.50;;;-0.38;84.01
53440;BME280;39333;47.044;15.080;2023-01-29T02:53:11;96912.66;;;-0.40;84.77
53440;BME280;39333;47.044;15.080;2023-01-29T02:55:36;96915.75;;;-0.36;84.42
53440;BME280;39333;47.044;15.080;2023-01-29T02:58:13;96916.56;;;-0.36;84.11
53440;BME280;39333;47.044;15.080;2023-01-29T03:00:44;96932.88;;;-0.33;84.21
53440;BME280;39333;47.044;15.080;2023-01-29T03:08:20;96919.66;;;-0.32;83.26
53440;BME280;39333;47.044;15.080;2023-01-29T03:10:57;96921.28;;;-0.31;83.08
53440;BME280;39333;47.044;15.080;2023-01-29T03:13:43;96917.25;;;-0.33;82.94
53440;BME280;39333;47.044;15.080;2023-01-29T03:16:16;96917.72;;;-0.30;83.07
53440;BME280;39333;47.044;15.080;2023-01-29T03:18:54;96918.69;;;-0.31;83.04
53440;BME280;39333;47.044;15.080;2023-01-29T03:21:30;96916.09;;;-0.31;82.93
53440;BME280;39333;47.044;15.080;2023-01-29T03:24:22;96926.19;;;-0.28;82.92
53440;BME280;39333;47.044;15.080;2023-01-29T03:27:12;96924.72;;;-0.30;82.67
53440;BME280;39333;47.044;15.080;2023-01-29T03:29:59;96927.84;;;-0.27;82.65
53440;BME280;39333;47.044;15.080;2023-01-29T03:32:50;96921.81;;;-0.27;82.61
53440;BME280;39333;47.044;15.080;2023-01-29T03:35:22;96932.38;;;-0.29;83.06
53440;BME280;39333;47.044;15.080;2023-01-29T03:37:59;96934.50;;;-0.32;83.62
53440;BME280;39333;47.044;15.080;2023-01-29T03:40:34;96932.22;;;-0.36;84.00
53440;BME280;39333;47.044;15.080;2023-01-29T03:43:28;96918.81;;;-0.41;83.77
53440;BME280;39333;47.044;15.080;2023-01-29T03:48:38;96930.22;;;-0.42;83.87
53440;BME280;39333;47.044;15.080;2023-01-29T03:51:17;96932.66;;;-0.40;84.26
53440;BME280;39333;47.044;15.080;2023-01-29T03:54:14;96931.84;;;-0.41;83.90
53440;BME280;39333;47.044;15.080;2023-01-29T03:57:16;96929.56;;;-0.44;83.84
53440;BME280;39333;47.044;15.080;2023-01-29T04:00:07;96925.00;;;-0.42;84.08
53440;BME280;39333;47.044;15.080;2023-01-29T04:05:58;96916.53;;;-0.44;83.48
53440;BME280;39333;47.044;15.080;2023-01-29T04:08:33;96917.03;;;-0.40;83.30
53440;BME280;39333;47.044;15.080;2023-01-29T04:11:08;96921.75;;;-0.44;83.16
53440;BME280;39333;47.044;15.080;2023-01-29T04:13:37;96922.31;;;-0.58;84.02
53440;BME280;39333;47.044;15.080;2023-01-29T04:16:10;96922.63;;;-0.61;84.50
53440;BME280;39333;47.044;15.080;2023-01-29T04:19:05;96921.66;;;-0.60;84.53
53440;BME280;39333;47.044;15.080;2023-01-29T04:21:37;96931.25;;;-0.60;84.50
53440;BME280;39333;47.044;15.080;2023-01-29T04:24:06;96938.91;;;-0.59;84.23
53440;BME280;39333;47.044;15.080;2023-01-29T04:32:54;96943.88;;;-0.74;85.27
53440;BME280;39333;47.044;15.080;2023-01-29T04:41:23;96941.81;;;-0.70;85.10
53440;BME280;39333;47.044;15.080;2023-01-29T04:46:51;96947.38;;;-0.65;84.37
53440;BME280;39333;47.044;15.080;2023-01-29T04:49:36;96953.06;;;-0.61;84.10
53440;BME280;39333;47.044;15.080;2023-01-29T04:52:16;96944.13;;;-0.59;83.85
53440;BME280;39333;47.044;15.080;2023-01-29T04:57:46;96944.59;;;-0.63;84.01
53440;BME280;39333;47.044;15.080;2023-01-29T05:00:24;96948.97;;;-0.64;84.16
53440;BME280;39333;47.044;15.080;2023-01-29T05:02:53;96946.59;;;-0.83;84.61
53440;BME280;39333;47.044;15.080;2023-01-29T05:05:20;96938.13;;;-0.85;85.24
53440;BME280;39333;47.044;15.080;2023-01-29T05:07:48;96934.91;;;-0.79;85.33
53440;BME280;39333;47.044;15.080;2023-01-29T05:10:17;96936.91;;;-0.73;85.14
53440;BME280;39333;47.044;15.080;2023-01-29T05:12:50;96934.13;;;-0.72;84.82
53440;BME280;39333;47.044;15.080;2023-01-29T05:15:27;96934.97;;;-0.71;84.88
53440;BME280;39333;47.044;15.080;2023-01-29T05:17:57;96930.41;;;-0.69;84.63
53440;BME280;39333;47.044;15.080;2023-01-29T05:20:31;96923.28;;;-0.67;84.39
53440;BME280;39333;47.044;15.080;2023-01-29T05:22:59;96931.56;;;-0.63;84.04
53440;BME280;39333;47.044;15.080;2023-01-29T05:25:28;96923.94;;;-0.65;83.86
53440;BME280;39333;47.044;15.080;2023-01-29T05:27:56;96927.00;;;-0.69;84.32
53440;BME280;39333;47.044;15.080;2023-01-29T05:30:43;96938.75;;;-0.65;84.41
53440;BME280;39333;47.044;15.080;2023-01-29T05:33:13;96940.84;;;-0.61;84.22
53440;BME280;39333;47.044;15.080;2023-01-29T05:35:40;96941.16;;;-0.64;84.17
53440;BME280;39333;47.044;15.080;2023-01-29T05:38:07;96938.91;;;-0.67;84.14
53440;BME280;39333;47.044;15.080;2023-01-29T05:40:34;96939.03;;;-0.94;85.00
53440;BME280;39333;47.044;15.080;2023-01-29T05:43:02;96938.63;;;-1.08;85.93
53440;BME280;39333;47.044;15.080;2023-01-29T05:45:29;96940.31;;;-0.98;86.23
53440;BME280;39333;47.044;15.080;2023-01-29T05:47:57;96923.78;;;-0.89;86.12
53440;BME280;39333;47.044;15.080;2023-01-29T05:50:25;96929.84;;;-0.81;85.53
53440;BME280;39333;47.044;15.080;2023-01-29T05:52:58;96935.25;;;-0.74;85.08
53440;BME280;39333;47.044;15.080;2023-01-29T05:55:25;96940.97;;;-0.71;84.76
53440;BME280;39333;47.044;15.080;2023-01-29T05:57:52;96940.47;;;-0.74;84.41
53440;BME280;39333;47.044;15.080;2023-01-29T06:00:20;96946.59;;;-0.83;84.40
53440;BME280;39333;47.044;15.080;2023-01-29T06:02:47;96960.81;;;-0.95;84.97
53440;BME280;39333;47.044;15.080;2023-01-29T06:05:14;96957.50;;;-1.06;85.40
53440;BME280;39333;47.044;15.080;2023-01-29T06:07:41;96965.69;;;-1.00;85.99
53440;BME280;39333;47.044;15.080;2023-01-29T06:10:16;96957.09;;;-0.93;85.83
53440;BME280;39333;47.044;15.080;2023-01-29T06:12:44;96966.91;;;-0.87;84.88
53440;BME280;39333;47.044;15.080;2023-01-29T06:15:12;96966.81;;;-0.77;84.33
53440;BME280;39333;47.044;15.080;2023-01-29T06:17:41;96955.09;;;-0.81;83.68
53440;BME280;39333;47.044;15.080;2023-01-29T06:20:09;96963.53;;;-0.79;83.10
53440;BME280;39333;47.044;15.080;2023-01-29T06:22:36;96971.19;;;-0.78;83.09
53440;BME280;39333;47.044;15.080;2023-01-29T06:25:03;96972.81;;;-0.77;82.93
53440;BME280;39333;47.044;15.080;2023-01-29T06:27:30;96980.44;;;-0.83;82.57
53440;BME280;39333;47.044;15.080;2023-01-29T06:29:57;96972.78;;;-0.85;82.63
53440;BME280;39333;47.044;15.080;2023-01-29T06:32:24;96979.41;;;-0.90;82.24
53440;BME280;39333;47.044;15.080;2023-01-29T06:34:51;96974.16;;;-0.98;82.23
53440;BME280;39333;47.044;15.080;2023-01-29T06:37:18;96973.00;;;-1.22;82.43
53440;BME280;39333;47.044;15.080;2023-01-29T06:39:45;96966.16;;;-1.23;82.73
53440;BME280;39333;47.044;15.080;2023-01-29T06:42:12;96967.66;;;-1.38;82.74
53440;BME280;39333;47.044;15.080;2023-01-29T06:44:39;96973.56;;;-1.46;83.26
53440;BME280;39333;47.044;15.080;2023-01-29T06:47:06;96987.47;;;-1.55;83.47
53440;BME280;39333;47.044;15.080;2023-01-29T06:49:35;96998.94;;;-1.65;83.62
53440;BME280;39333;47.044;15.080;2023-01-29T06:52:02;96995.25;;;-1.72;83.64
53440;BME280;39333;47.044;15.080;2023-01-29T06:54:29;97001.66;;;-1.67;84.02
53440;BME280;39333;47.044;15.080;2023-01-29T06:56:56;96992.59;;;-1.81;83.16
53440;BME280;39333;47.044;15.080;2023-01-29T06:59:23;96989.00;;;-1.97;82.29
53440;BME280;39333;47.044;15.080;2023-01-29T07:01:49;96992.09;;;-1.94;81.92
53440;BME280;39333;47.044;15.080;2023-01-29T07:04:16;96996.28;;;-1.83;81.60
53440;BME280;39333;47.044;15.080;2023-01-29T07:06:43;96990.72;;;-1.88;81.15
53440;BME280;39333;47.044;15.080;2023-01-29T07:09:12;96999.09;;;-1.77;81.51
53440;BME280;39333;47.044;15.080;2023-01-29T07:11:41;96990.31;;;-1.66;81.50
53440;BME280;39333;47.044;15.080;2023-01-29T07:14:08;96987.84;;;-1.67;80.98
53440;BME280;39333;47.044;15.080;2023-01-29T07:16:35;96970.22;;;-1.73;80.31
53440;BME280;39333;47.044;15.080;2023-01-29T07:19:02;96966.38;;;-1.69;80.88
53440;BME280;39333;47.044;15.080;2023-01-29T07:21:29;96965.84;;;-1.55;80.97
53440;BME280;39333;47.044;15.080;2023-01-29T07:23:56;96954.59;;;-1.46;81.14
53440;BME280;39333;47.044;15.080;2023-01-29T07:26:23;96961.78;;;-1.40;80.94
53440;BME280;39333;47.044;15.080;2023-01-29T07:28:50;96959.78;;;-1.46;80.04
53440;BME280;39333;47.044;15.080;2023-01-29T07:31:17;96962.72;;;-1.41;80.03
53440;BME280;39333;47.044;15.080;2023-01-29T07:33:44;96959.16;;;-1.40;79.77
53440;BME280;39333;47.044;15.080;2023-01-29T07:36:12;96956.94;;;-1.53;79.21
53440;BME280;39333;47.044;15.080;2023-01-29T07:38:39;96955.69;;;-1.49;79.55
53440;BME280;39333;47.044;15.080;2023-01-29T07:41:06;96948.75;;;-1.40;79.67
53440;BME280;39333;47.044;15.080;2023-01-29T07:43:33;96947.56;;;-1.28;79.68
53440;BME280;39333;47.044;15.080;2023-01-29T07:46:01;96959.69;;;-1.19;79.55
53440;BME280;39333;47.044;15.080;2023-01-29T07:48:29;96949.78;;;-1.15;79.17
53440;BME280;39333;47.044;15.080;2023-01-29T07:50:56;96955.50;;;-1.12;78.94
53440;BME280;39333;47.044;15.080;2023-01-29T07:53:23;96947.09;;;-1.06;78.96
53440;BME280;39333;47.044;15.080;2023-01-29T07:55:50;96945.53;;;-0.98;78.90
53440;BME280;39333;47.044;15.080;2023-01-29T07:58:17;96946.69;;;-0.93;78.39
53440;BME280;39333;47.044;15.080;2023-01-29T08:00:44;96940.06;;;-0.87;78.06
53440;BME280;39333;47.044;15.080;2023-01-29T08:03:14;96940.44;;;-0.82;78.15
53440;BME280;39333;47.044;15.080;2023-01-29T08:05:45;96941.94;;;-0.72;77.97
53440;BME280;39333;47.044;15.080;2023-01-29T08:08:12;96950.75;;;-0.64;76.98
53440;BME280;39333;47.044;15.080;2023-01-29T08:10:39;96948.22;;;-0.56;77.12
53440;BME280;39333;47.044;15.080;2023-01-29T08:13:08;96941.59;;;-0.51;77.00
53440;BME280;39333;47.044;15.080;2023-01-29T08:15:35;96938.50;;;-0.46;77.26
53440;BME280;39333;47.044;15.080;2023-01-29T08:18:04;96946.97;;;-0.44;77.05
53440;BME280;39333;47.044;15.080;2023-01-29T08:20:32;96949.41;;;-0.43;77.08
53440;BME280;39333;47.044;15.080;2023-01-29T08:23:03;96949.63;;;-0.36;77.31
53440;BME280;39333;47.044;15.080;2023-01-29T08:25:31;96950.09;;;-0.41;76.66
53440;BME280;39333;47.044;15.080;2023-01-29T08:27:59;96948.81;;;-0.37;77.05
53440;BME280;39333;47.044;15.080;2023-01-29T08:30:29;96945.34;;;-0.45;75.86
53440;BME280;39333;47.044;15.080;2023-01-29T08:32:56;96955.44;;;-0.42;75.81
53440;BME280;39333;47.044;15.080;2023-01-29T08:35:23;96953.22;;;-0.37;76.13
53440;BME280;39333;47.044;15.080;2023-01-29T08:37:55;96953.22;;;-0.29;76.39
53440;BME280;39333;47.044;15.080;2023-01-29T08:40:25;96955.38;;;-0.24;75.96
53440;BME280;39333;47.044;15.080;2023-01-29T08:42:57;96951.94;;;-0.25;75.73
53440;BME280;39333;47.044;15.080;2023-01-29T08:45:27;96958.94;;;-0.25;75.78
53440;BME280;39333;47.044;15.080;2023-01-29T08:47:54;96959.63;;;-0.23;75.92
53440;BME280;39333;47.044;15.080;2023-01-29T08:50:21;96960.50;;;-0.41;75.00
53440;BME280;39333;47.044;15.080;2023-01-29T08:52:48;96970.56;;;-0.46;75.39
53440;BME280;39333;47.044;15.080;2023-01-29T08:55:17;96968.38;;;-0.58;75.28
53440;BME280;39333;47.044;15.080;2023-01-29T08:57:45;96976.81;;;-0.64;76.20
53440;BME280;39333;47.044;15.080;2023-01-29T09:00:12;96983.19;;;-0.59;76.51
53440;BME280;39333;47.044;15.080;2023-01-29T09:02:40;96985.38;;;-0.46;76.41
53440;BME280;39333;47.044;15.080;2023-01-29T09:05:07;96989.44;;;-0.52;75.94
53440;BME280;39333;47.044;15.080;2023-01-29T09:07:34;96994.41;;;-0.66;76.87
53440;BME280;39333;47.044;15.080;2023-01-29T09:10:02;96996.22;;;-0.59;77.10
53440;BME280;39333;47.044;15.080;2023-01-29T09:12:29;96989.78;;;-0.47;77.30
53440;BME280;39333;47.044;15.080;2023-01-29T09:14:55;97002.16;;;-0.49;76.25
53440;BME280;39333;47.044;15.080;2023-01-29T09:17:22;97002.25;;;-0.58;76.21
53440;BME280;39333;47.044;15.080;2023-01-29T09:19:49;96994.50;;;-0.50;76.78
53440;BME280;39333;47.044;15.080;2023-01-29T09:22:19;96999.97;;;-0.27;76.88
53440;BME280;39333;47.044;15.080;2023-01-29T09:24:48;97004.28;;;-0.10;76.52
53440;BME280;39333;47.044;15.080;2023-01-29T09:27:15;97007.88;;;-0.11;75.66
53440;BME280;39333;47.044;15.080;2023-01-29T09:29:42;97007.22;;;-0.13;75.67
53440;BME280;39333;47.044;15.080;2023-01-29T09:32:09;97009.16;;;-0.15;75.19
53440;BME280;39333;47.044;15.080;2023-01-29T09:34:36;97005.63;;;-0.06;75.12
53440;BME280;39333;47.044;15.080;2023-01-29T09:37:03;97005.84;;;0.09;75.17
53440;BME280;39333;47.044;15.080;2023-01-29T09:39:30;97002.06;;;0.03;75.12
53440;BME280;39333;47.044;15.080;2023-01-29T09:47:42;96997.19;;;0.00;75.28
53440;BME280;39333;47.044;15.080;2023-01-29T09:50:23;96998.03;;;0.17;75.72
53440;BME280;39333;47.044;15.080;2023-01-29T09:52:58;96997.31;;;0.32;75.05
53440;BME280;39333;47.044;15.080;2023-01-29T09:55:33;97002.22;;;0.44;74.48
53440;BME280;39333;47.044;15.080;2023-01-29T09:58:27;96992.13;;;0.49;73.92
53440;BME280;39333;47.044;15.080;2023-01-29T10:25:43;96984.66;;;1.02;73.34
53440;BME280;39333;47.044;15.080;2023-01-29T10:28:20;96984.66;;;1.11;73.18
53440;BME280;39333;47.044;15.080;2023-01-29T10:30:54;96978.13;;;1.07;71.53
53440;BME280;39333;47.044;15.080;2023-01-29T10:33:41;96974.84;;;1.21;71.68
53440;BME280;39333;47.044;15.080;2023-01-29T10:36:37;96975.34;;;1.24;72.08
53440;BME280;39333;47.044;15.080;2023-01-29T10:39:19;96968.81;;;1.20;71.64
53440;BME280;39333;47.044;15.080;2023-01-29T10:44:30;96967.31;;;1.34;72.18
53440;BME280;39333;47.044;15.080;2023-01-29T11:00:57;96964.72;;;1.34;70.84
53440;BME280;39333;47.044;15.080;2023-01-29T11:03:27;96968.81;;;0.88;71.64
53440;BME280;39333;47.044;15.080;2023-01-29T11:06:23;96959.81;;;0.50;72.92
53440;BME280;39333;47.044;15.080;2023-01-29T11:12:04;96953.50;;;0.02;75.31
53440;BME280;39333;47.044;15.080;2023-01-29T11:17:22;96941.53;;;0.25;75.30
53440;BME280;39333;47.044;15.080;2023-01-29T11:19:51;96951.31;;;0.31;74.65
53440;BME280;39333;47.044;15.080;2023-01-29T11:22:26;96946.06;;;0.23;74.52
53440;BME280;39333;47.044;15.080;2023-01-29T11:25:20;96940.56;;;0.43;75.07
53440;BME280;39333;47.044;15.080;2023-01-29T11:27:55;96939.59;;;0.68;74.56
53440;BME280;39333;47.044;15.080;2023-01-29T11:30:26;96939.59;;;0.68;74.59
53440;BME280;39333;47.044;15.080;2023-01-29T11:35:38;96930.66;;;0.95;74.13
53440;BME280;39333;47.044;15.080;2023-01-29T11:40:44;96922.00;;;0.54;73.52
53440;BME280;39333;47.044;15.080;2023-01-29T11:43:20;96916.13;;;0.76;74.93
53440;BME280;39333;47.044;15.080;2023-01-29T11:45:50;96917.09;;;0.91;74.44
53440;BME280;39333;47.044;15.080;2023-01-29T11:48:20;96905.69;;;0.60;74.76
53440;BME280;39333;47.044;15.080;2023-01-29T11:50:54;96906.03;;;0.57;74.53
53440;BME280;39333;47.044;15.080;2023-01-29T11:53:35;96909.94;;;0.61;75.47
53440;BME280;39333;47.044;15.080;2023-01-29T11:56:16;96896.22;;;0.75;74.92
53440;BME280;39333;47.044;15.080;2023-01-29T11:58:45;96892.31;;;0.71;74.80
53440;BME280;39333;47.044;15.080;2023-01-29T12:01:16;96892.34;;;0.63;75.07
53440;BME280;39333;47.044;15.080;2023-01-29T12:03:52;96883.19;;;0.75;75.19
53440;BME280;39333;47.044;15.080;2023-01-29T12:06:33;96889.38;;;0.42;74.28
53440;BME280;39333;47.044;15.080;2023-01-29T12:09:12;96887.25;;;0.29;75.05
53440;BME280;39333;47.044;15.080;2023-01-29T12:11:42;96885.78;;;0.43;75.70
53440;BME280;39333;47.044;15.080;2023-01-29T12:14:30;96888.38;;;0.67;75.72
53440;BME280;39333;47.044;15.080;2023-01-29T12:17:13;96892.81;;;0.75;75.32
53440;BME280;39333;47.044;15.080;2023-01-29T12:19:47;96885.78;;;0.75;75.08
53440;BME280;39333;47.044;15.080;2023-01-29T12:22:48;96878.75;;;0.92;74.96
53440;BME280;39333;47.044;15.080;2023-01-29T12:28:30;96880.19;;;1.02;73.83
53440;BME280;39333;47.044;15.080;2023-01-29T12:31:41;96879.72;;;0.99;73.64
53440;BME280;39333;47.044;15.080;2023-01-29T12:34:11;96870.75;;;1.01;74.03
53440;BME280;39333;47.044;15.080;2023-01-29T12:36:47;96865.53;;;0.93;73.28
53440;BME280;39333;47.044;15.080;2023-01-29T12:39:19;96860.00;;;0.88;72.96
53440;BME280;39333;47.044;15.080;2023-01-29T12:41:52;96866.53;;;0.84;73.57
53440;BME280;39333;47.044;15.080;2023-01-29T12:44:32;96866.06;;;0.73;73.58
53440;BME280;39333;47.044;15.080;2023-01-29T12:47:05;96861.81;;;0.80;74.10
53440;BME280;39333;47.044;15.080;2023-01-29T12:49:36;96860.19;;;0.79;74.23
53440;BME280;39333;47.044;15.080;2023-01-29T12:52:12;96860.31;;;0.85;74.30
53440;BME280;39333;47.044;15.080;2023-01-29T12:54:51;96854.25;;;1.01;74.72
53440;BME280;39333;47.044;15.080;2023-01-29T12:57:37;96852.28;;;1.03;73.43
53440;BME280;39333;47.044;15.080;2023-01-29T13:00:17;96842.66;;;1.12;73.98
53440;BME280;39333;47.044;15.080;2023-01-29T13:06:13;96838.41;;;1.11;72.88
53440;BME280;39333;47.044;15.080;2023-01-29T13:08:47;96838.22;;;1.20;73.73
53440;BME280;39333;47.044;15.080;2023-01-29T13:11:28;96829.22;;;1.23;73.80
53440;BME280;39333;47.044;15.080;2023-01-29T13:14:05;96823.41;;;1.13;73.04
53440;BME280;39333;47.044;15.080;2023-01-29T13:16:41;96825.88;;;0.98;72.65
53440;BME280;39333;47.044;15.080;2023-01-29T13:19:19;96823.78;;;0.93;73.51
53440;BME280;39333;47.044;15.080;2023-01-29T13:21:47;96827.72;;;0.81;73.82
53440;BME280;39333;47.044;15.080;2023-01-29T13:24:17;96821.38;;;0.76;74.09
53440;BME280;39333;47.044;15.080;2023-01-29T13:26:48;96821.72;;;0.56;74.45
53440;BME280;39333;47.044;15.080;2023-01-29T13:29:24;96817.94;;;0.67;75.15
53440;BME280;39333;47.044;15.080;2023-01-29T13:31:53;96819.09;;;0.64;74.81
53440;BME280;39333;47.044;15.080;2023-01-29T13:34:25;96828.38;;;0.51;74.37
53440;BME280;39333;47.044;15.080;2023-01-29T13:36:56;96816.31;;;0.58;75.28
53440;BME280;39333;47.044;15.080;2023-01-29T13:39:28;96823.53;;;0.31;75.11
53440;BME280;39333;47.044;15.080;2023-01-29T13:41:57;96812.25;;;0.39;75.44
53440;BME280;39333;47.044;15.080;2023-01-29T13:44:27;96816.31;;;0.58;75.85
53440;BME280;39333;47.044;15.080;2023-01-29T13:46:57;96825.59;;;0.77;76.61
53440;BME280;39333;47.044;15.080;2023-01-29T13:54:49;96816.78;;;0.69;74.89
53440;BME280;39333;47.044;15.080;2023-01-29T14:08:01;96812.81;;;0.98;76.16
53440;BME280;39333;47.044;15.080;2023-01-29T14:10:32;96808.44;;;0.90;75.38
53440;BME280;39333;47.044;15.080;2023-01-29T14:15:34;96808.13;;;0.85;75.40
53440;BME280;39333;47.044;15.080;2023-01-29T14:18:14;96799.31;;;0.86;75.35
53440;BME280;39333;47.044;15.080;2023-01-29T14:21:05;96800.97;;;0.71;74.13
53440;BME280;39333;47.044;15.080;2023-01-29T14:23:34;96804.25;;;0.57;74.80
53440;BME280;39333;47.044;15.080;2023-01-29T14:28:51;96800.34;;;0.20;76.33
53440;BME280;39333;47.044;15.080;2023-01-29T14:31:58;96806.41;;;0.13;76.46
53440;BME280;39333;47.044;15.080;2023-01-29T14:34:31;96795.13;;;0.04;76.26
53440;BME280;39333;47.044;15.080;2023-01-29T14:37:18;96805.75;;;0.11;76.46
53440;BME280;39333;47.044;15.080;2023-01-29T14:39:47;96800.53;;;0.11;76.52
53440;BME280;39333;47.044;15.080;2023-01-29T14:42:28;96800.53;;;0.11;76.96
53440;BME280;39333;47.044;15.080;2023-01-29T14:45:07;96802.81;;;0.22;77.18
53440;BME280;39333;47.044;15.080;2023-01-29T14:58:52;96785.38;;;0.30;76.95
53440;BME280;39333;47.044;15.080;2023-01-29T15:01:37;96793.88;;;0.32;76.51
53440;BME280;39333;47.044;15.080;2023-01-29T15:04:26;96802.66;;;0.48;76.65
53440;BME280;39333;47.044;15.080;2023-01-29T15:09:57;96806.38;;;0.61;76.34
53440;BME280;39333;47.044;15.080;2023-01-29T15:13:12;96802.81;;;0.38;74.91
53440;BME280;39333;47.044;15.080;2023-01-29T15:15:51;96799.38;;;0.46;75.69
53440;BME280;39333;47.044;15.080;2023-01-29T15:18:34;96794.97;;;0.54;76.15
53440;BME280;39333;47.044;15.080;2023-01-29T15:21:09;96788.13;;;0.53;76.12
53440;BME280;39333;47.044;15.080;2023-01-29T15:23:39;96788.78;;;0.47;75.61
53440;BME280;39333;47.044;15.080;2023-01-29T15:26:09;96781.94;;;0.38;75.35
53440;BME280;39333;47.044;15.080;2023-01-29T15:28:38;96779.81;;;0.17;75.92
53440;BME280;39333;47.044;15.080;2023-01-29T15:31:10;96781.44;;;0.02;76.03
53440;BME280;39333;47.044;15.080;2023-01-29T15:33:42;96775.41;;;-0.15;76.97
53440;BME280;39333;47.044;15.080;2023-01-29T15:36:24;96776.72;;;-0.11;77.48
53440;BME280;39333;47.044;15.080;2023-01-29T15:41:41;96774.28;;;0.04;77.84
53440;BME280;39333;47.044;15.080;2023-01-29T15:44:20;96767.13;;;-0.02;77.28
53440;BME280;39333;47.044;15.080;2023-01-29T15:46:49;96759.31;;;-0.02;77.24
53440;BME280;39333;47.044;15.080;2023-01-29T15:49:24;96757.00;;;-0.13;77.20
53440;BME280;39333;47.044;15.080;2023-01-29T15:51:57;96760.56;;;-0.30;77.84
53440;BME280;39333;47.044;15.080;2023-01-29T15:54:29;96756.34;;;-0.40;78.53
53440;BME280;39333;47.044;15.080;2023-01-29T15:56:57;96754.03;;;-0.43;78.85
53440;BME280;39333;47.044;15.080;2023-01-29T15:59:36;96756.97;;;-0.54;78.83
53440;BME280;39333;47.044;15.080;2023-01-29T16:02:33;96756.97;;;-0.46;79.06